Saturday, January 20, 2018, 9:56 AM EST
Back to Local

KBVY, Beverly Municipal Airport

Location: Danvers, MA, United States Lat: 42.583
Local Time: 9:56 AM EST (14:56 GMT) Lon: -70.917
Time Zone: US/Eastern Elev: 108 ft

Show me the last for .
Show Decoded

2018-01-20 08:53 METAR KBVY 201353Z 23015G22KT 10SM SCT140 BKN200 03/M05 A2966 RMK AO2 SLP040
                 T00331050 =
2018-01-20 07:53 METAR KBVY 201253Z 22012KT 10SM SCT140 BKN200 02/M05 A2967 RMK AO2 SLP044
                 T00221050 =
2018-01-20 06:53 METAR KBVY 201153Z 22010KT 10SM BKN140 BKN200 02/M06 A2968 RMK AO2 SLP048
                 T00171056 10017 21006 56031 =
2018-01-20 05:53 METAR KBVY 201053Z AUTO 22009KT 10SM CLR 01/M06 A2970 RMK AO2 SLP055 T00111061 =
2018-01-20 04:53 METAR KBVY 200953Z AUTO 21008KT 10SM CLR 00/M07 A2974 RMK AO2 SLP067 T00001067 =
2018-01-20 03:53 METAR KBVY 200853Z AUTO 21008KT 10SM CLR 01/M06 A2977 RMK AO2 SLP080 T00061061
                 58017 =
2018-01-20 01:53 METAR KBVY 200653Z AUTO 22008KT 10SM CLR 01/M07 A2981 RMK AO2 SLP092 T00061067 =
2018-01-20 00:53 METAR KBVY 200553Z AUTO 20007KT 10SM CLR M01/M07 A2983 RMK AO2 PRESFR SLP097
                 T10061072 10000 21017 58029 =
2018-01-19 23:53 METAR KBVY 200453Z AUTO 21006KT 10SM CLR M02/M07 A2987 RMK AO2 SLP111 T10171072
                 400061067 =
2018-01-19 22:53 METAR KBVY 200353Z AUTO 21006KT 10SM CLR M01/M07 A2990 RMK AO2 SLP124 T10111067
                 =
2018-01-19 21:53 METAR KBVY 200253Z AUTO 21005KT 10SM SCT039 M01/M06 A2991 RMK AO2 SLP126
                 T10061061 58001 =
2018-01-19 20:53 METAR KBVY 200153Z AUTO 24005KT 10SM OVC039 00/M06 A2993 RMK AO2 SLP133
                 T00001056 =
2018-01-19 19:53 METAR KBVY 200053Z 24005KT 9SM OVC038 00/M05 A2994 RMK AO2 SLP134 LAST T00001050
                 =
2018-01-19 18:53 METAR KBVY 192353Z 22004KT 10SM OVC039 00/M06 A2991 RMK AO2 SLP127 T00001056
                 10006 20000 58004 =
2018-01-19 17:53 METAR KBVY 192253Z 18004KT 10SM OVC038 00/M06 A2991 RMK AO2 SLP126 T00001056 =
2018-01-19 16:53 METAR KBVY 192153Z 29004KT 10SM OVC039 00/M06 A2994 RMK AO2 SLP136 T00001056 =
2018-01-19 15:53 METAR KBVY 192053Z 28005KT 10SM OVC033 01/M06 A2993 RMK AO2 SLP131 T00061056
                 53006 =
2018-01-19 14:53 METAR KBVY 191953Z 29007KT 10SM OVC034 01/M06 A2992 RMK AO2 SLP129 T00061061 =
2018-01-19 13:53 METAR KBVY 191853Z 27007KT 10SM OVC032 00/M06 A2990 RMK AO2 SLP122 T00001061 =
2018-01-19 12:53 METAR KBVY 191753Z VRB06KT 10SM SCT034 00/M07 A2991 RMK AO2 SLP125 T00001067
                 10006 21061 58021 =
2018-01-19 11:53 METAR KBVY 191653Z VRB04KT 10SM FEW037 00/M06 A2994 RMK AO2 SLP134 T00001061 =
2018-01-19 10:53 METAR KBVY 191553Z 25007KT 10SM SCT039 M01/M07 A2996 RMK AO2 SLP142 T10111072 =

Support USWX by starting your Amazon purchase here.